createdAt,value
2023-02-13T00:02:59.622Z,0
2023-02-13T00:08:17.050Z,0
2023-02-13T00:13:34.359Z,0
2023-02-13T00:18:51.982Z,0
2023-02-13T00:24:09.603Z,0
2023-02-13T00:29:27.343Z,0
2023-02-13T00:40:08.386Z,0
2023-02-13T00:45:25.798Z,0
2023-02-13T00:50:43.151Z,0
2023-02-13T00:56:00.444Z,0
2023-02-13T01:01:17.917Z,0
2023-02-13T01:06:40.687Z,0
2023-02-13T01:11:58.216Z,0
2023-02-13T01:17:15.497Z,0
2023-02-13T01:22:32.629Z,0
2023-02-13T01:27:50.080Z,0
2023-02-13T01:33:07.617Z,0
2023-02-13T01:38:26.939Z,0
2023-02-13T01:43:44.769Z,0
2023-02-13T01:49:02.308Z,0
2023-02-13T01:54:19.550Z,0
2023-02-13T01:59:36.770Z,0
2023-02-13T02:05:02.852Z,0
2023-02-13T02:10:20.159Z,0
2023-02-13T02:15:40.133Z,0
2023-02-13T02:21:00.748Z,0
2023-02-13T02:26:18.208Z,0
2023-02-13T02:31:37.455Z,0
2023-02-13T02:36:55.032Z,0
2023-02-13T02:42:12.599Z,0
2023-02-13T02:47:32.866Z,0
2023-02-13T02:52:50.064Z,0
2023-02-13T02:58:07.383Z,0
2023-02-13T03:03:25.033Z,0
2023-02-13T03:08:42.693Z,0
2023-02-13T03:13:59.978Z,0
2023-02-13T03:19:22.960Z,0
2023-02-13T03:24:40.237Z,0
2023-02-13T03:29:59.684Z,0
2023-02-13T03:35:19.777Z,0
2023-02-13T03:40:36.975Z,0
2023-02-13T03:45:54.214Z,0
2023-02-13T03:51:18.417Z,0
2023-02-13T03:56:35.937Z,0
2023-02-13T04:07:16.397Z,0
2023-02-13T04:12:33.697Z,0
2023-02-13T04:17:53.580Z,0
2023-02-13T04:23:10.764Z,0
2023-02-13T04:28:31.882Z,0
2023-02-13T04:33:49.473Z,0
2023-02-13T04:39:06.697Z,0
2023-02-13T04:49:45.636Z,0
2023-02-13T04:55:02.919Z,0
2023-02-13T05:00:22.940Z,0
2023-02-13T05:05:40.186Z,0
2023-02-13T05:11:18.163Z,0
2023-02-13T05:16:35.855Z,0
2023-02-13T05:21:55.796Z,0
2023-02-13T05:27:13.224Z,0
2023-02-13T05:32:30.500Z,0
2023-02-13T05:37:49.874Z,0
2023-02-13T05:43:07.480Z,0
2023-02-13T05:48:24.780Z,0
2023-02-13T05:53:42.133Z,0
2023-02-13T05:58:59.666Z,0
2023-02-13T06:04:17.405Z,0
2023-02-13T06:09:36.812Z,0
2023-02-13T06:14:54.176Z,0
2023-02-13T06:20:13.905Z,0
2023-02-13T06:25:31.249Z,0
2023-02-13T06:30:48.539Z,20.8
2023-02-13T06:36:06.124Z,53.3
2023-02-13T06:41:23.033Z,111.7
2023-02-13T06:46:40.208Z,204.6
2023-02-13T06:52:00.998Z,337.9
2023-02-13T06:57:18.033Z,508.3
2023-02-13T07:02:35.126Z,711.7
2023-02-13T07:08:03.795Z,936.2
2023-02-13T07:13:21.392Z,1187.5
2023-02-13T07:18:38.657Z,1427.5
2023-02-13T07:23:55.927Z,1660
2023-02-13T07:29:13.388Z,1956.7
2023-02-13T07:34:30.677Z,2198.8
2023-02-13T07:39:47.833Z,2585
2023-02-13T07:45:04.911Z,4171.3
2023-02-13T07:50:25.738Z,4260
2023-02-13T07:56:03.766Z,4947.5
2023-02-13T08:01:21.457Z,6485.8
2023-02-13T08:06:42.273Z,5159.6
2023-02-13T08:11:58.793Z,4840.4
2023-02-13T08:18:00.778Z,4836.7
2023-02-13T08:23:19.162Z,5948.3
2023-02-13T08:28:36.876Z,5675
2023-02-13T08:33:54.478Z,5756.3
2023-02-13T08:39:12.080Z,5679.6
2023-02-13T08:44:29.501Z,5741.7
2023-02-13T08:49:46.792Z,10466.7
2023-02-13T08:55:04.336Z,7085.4
2023-02-13T09:00:21.532Z,7231.7
2023-02-13T09:05:38.514Z,7249.6
2023-02-13T09:10:55.647Z,9331.7
2023-02-13T09:16:12.808Z,10696.7
2023-02-13T09:26:50.039Z,10395.4
2023-02-13T09:32:07.404Z,10375.4
2023-02-13T10:21:04.526Z,13815.8
2023-02-13T10:26:38.676Z,16191.3
2023-02-13T10:31:56.170Z,15998.7
2023-02-13T10:37:13.287Z,17160.4
2023-02-13T10:42:30.608Z,16999.6
2023-02-13T10:47:49.897Z,15305.8
2023-02-13T10:53:07.210Z,16875.4
2023-02-13T10:58:24.464Z,16152.1
2023-02-13T11:03:41.423Z,18010.8
2023-02-13T11:08:58.685Z,17797.1
2023-02-13T11:14:16.106Z,17290.8
2023-02-13T11:19:33.204Z,18258.7
2023-02-13T11:24:50.235Z,18236.2
2023-02-13T11:30:07.494Z,17672.5
2023-02-13T11:35:25.153Z,16210.4
2023-02-13T11:40:42.163Z,15705.4
2023-02-13T11:46:01.939Z,14421.7
2023-02-13T11:51:19.136Z,16619.2
2023-02-13T11:56:40.283Z,16638.7
2023-02-13T12:02:02.585Z,16783.3
2023-02-13T12:07:19.774Z,17138.7
2023-02-13T12:12:36.807Z,18025.4
2023-02-13T12:17:54.176Z,18568.3
2023-02-13T12:23:11.344Z,17567.9
2023-02-13T12:28:28.331Z,16875
2023-02-13T12:33:47.819Z,16401.7
2023-02-13T12:39:22.389Z,16619.6
2023-02-13T12:44:39.754Z,17363.8
2023-02-13T12:49:59.286Z,17333.3
2023-02-13T12:55:16.225Z,16659.6
2023-02-13T13:00:53.206Z,16696.2
2023-02-13T13:06:12.596Z,14587.5
2023-02-13T13:11:29.768Z,15130.4
2023-02-13T13:16:46.933Z,15712.9
2023-02-13T13:22:03.907Z,14860
2023-02-13T13:27:23.781Z,14959.6
2023-02-13T13:32:40.623Z,13061.3
2023-02-13T13:37:57.761Z,13962.9
2023-02-13T13:43:17.269Z,12955
2023-02-13T13:48:33.291Z,4327.1
2023-02-13T13:53:56.409Z,3511.3
2023-02-13T13:59:12.663Z,3499.2
2023-02-13T14:04:29.223Z,3405.4
2023-02-13T14:09:45.945Z,3382.5
2023-02-13T14:15:02.859Z,3341.3
2023-02-13T14:20:19.907Z,3300.4
2023-02-13T14:25:36.827Z,3255.8
2023-02-13T14:30:57.068Z,3206.7
2023-02-13T14:36:14.287Z,3127.1
2023-02-13T14:41:31.109Z,3063.8
2023-02-13T14:46:49.156Z,2975.8
2023-02-13T14:52:08.741Z,2890.8
2023-02-13T14:57:26.209Z,2806.3
2023-02-13T15:02:44.274Z,2737.1
2023-02-13T15:08:04.300Z,2668.8
2023-02-13T15:13:21.439Z,2556.3
2023-02-13T15:18:38.215Z,2448.8
2023-02-13T15:29:25.481Z,2285.8
2023-02-13T15:34:44.016Z,2203.8
2023-02-13T15:40:01.276Z,2116.7
2023-02-13T15:45:31.729Z,2022.5
2023-02-13T15:50:49.708Z,1909.6
2023-02-13T15:56:06.665Z,1792.9
2023-02-13T16:01:23.620Z,1671.3
2023-02-13T16:06:40.752Z,1536.7
2023-02-13T16:11:57.584Z,1389.6
2023-02-13T16:17:14.626Z,1229.2
2023-02-13T16:22:31.877Z,1060
2023-02-13T16:27:48.943Z,886.7
2023-02-13T16:38:25.608Z,526.2
2023-02-13T16:43:42.239Z,360.8
2023-02-13T16:48:59.240Z,229.6
2023-02-13T16:54:15.975Z,131.3
2023-02-13T16:59:38.882Z,66.2
2023-02-13T17:04:56.084Z,27.9
2023-02-13T17:10:13.255Z,0.5
2023-02-13T17:15:30.540Z,0
2023-02-13T17:20:47.784Z,0
2023-02-13T17:26:05.223Z,0
2023-02-13T17:31:22.782Z,0
2023-02-13T17:36:43.423Z,0
2023-02-13T17:42:00.858Z,0
2023-02-13T17:47:20.486Z,0
2023-02-13T17:52:37.776Z,0
2023-02-13T17:57:55.163Z,0
2023-02-13T18:03:12.955Z,0
2023-02-13T18:08:32.478Z,0
2023-02-13T18:13:49.922Z,0
2023-02-13T18:19:07.277Z,0
2023-02-13T18:24:24.734Z,0
2023-02-13T18:29:41.940Z,0
2023-02-13T18:34:59.288Z,0
2023-02-13T18:40:16.489Z,0
2023-02-13T18:45:34.103Z,0
2023-02-13T18:50:51.610Z,0
2023-02-13T18:56:12.135Z,0
2023-02-13T19:01:30.143Z,0
2023-02-13T19:06:47.484Z,0
2023-02-13T19:12:04.919Z,0
2023-02-13T19:17:24.988Z,0
2023-02-13T19:22:51.916Z,0
2023-02-13T19:28:09.400Z,0
2023-02-13T19:33:26.696Z,0
2023-02-13T19:38:47.077Z,0
2023-02-13T19:44:04.693Z,0
2023-02-13T19:49:22.482Z,0
2023-02-13T19:54:40.088Z,0
2023-02-13T19:59:57.364Z,0
2023-02-13T20:05:14.692Z,0
2023-02-13T20:10:32.007Z,0
2023-02-13T20:15:49.243Z,0
2023-02-13T20:21:06.525Z,0
2023-02-13T20:27:01.318Z,0
2023-02-13T20:32:18.935Z,0
2023-02-13T20:37:36.040Z,0
2023-02-13T20:42:53.288Z,0
2023-02-13T20:48:10.466Z,0
2023-02-13T20:53:27.747Z,0
2023-02-13T20:58:44.985Z,0
2023-02-13T21:04:02.211Z,0
2023-02-13T21:09:23.420Z,0
2023-02-13T21:14:41.597Z,0
2023-02-13T21:19:59.364Z,0
2023-02-13T21:25:16.587Z,0
2023-02-13T21:30:36.956Z,0
2023-02-13T21:35:54.378Z,0
2023-02-13T21:41:11.581Z,0
2023-02-13T21:51:51.928Z,0
2023-02-13T21:57:09.388Z,0
2023-02-13T22:02:27.086Z,0
2023-02-13T22:07:44.532Z,0
2023-02-13T22:13:02.022Z,0
2023-02-13T22:18:28.636Z,0
2023-02-13T22:23:46.112Z,0
2023-02-13T22:29:03.344Z,0
2023-02-13T22:34:22.793Z,0
2023-02-13T22:39:47.196Z,0
2023-02-13T22:45:04.852Z,0
2023-02-13T22:50:33.350Z,0
2023-02-13T22:55:50.812Z,0
2023-02-13T23:01:08.147Z,0
2023-02-13T23:06:25.633Z,0
2023-02-13T23:17:03.198Z,0
2023-02-13T23:22:21.496Z,0
2023-02-13T23:27:41.796Z,0
2023-02-13T23:32:59.098Z,0
2023-02-13T23:38:16.615Z,0
2023-02-13T23:43:33.875Z,0
2023-02-13T23:48:51.003Z,0
2023-02-13T23:54:08.366Z,0
2023-02-13T23:59:28.620Z,0
